Time;durP1;ratioP1;P1;durP2;ratioP2;P2;SDS_P1;SDS_P2;PMS_P1;PMS_P2;Temp;Humidity;BMP_temperature;BMP_pressure;BME280_temperature;BME280_humidity;BME280_pressure;Samples;Min_cycle;Max_cycle;Signal;HPM_P1;HPM_P2
2021/12/27 00:01:55;;;;;;;25.07;18.33;;;9.20;99.90;;;;;;5048868;28;20449;-70
2021/12/27 00:04:24;;;;;;;28.17;19.40;;;9.30;99.90;;;;;;5048672;28;20481;-68
2021/12/27 00:06:51;;;;;;;25.37;17.57;;;9.30;99.90;;;;;;5049144;28;20461;-69
2021/12/27 00:09:18;;;;;;;25.67;18.70;;;9.20;99.90;;;;;;5049073;28;20445;-68
2021/12/27 00:11:45;;;;;;;25.17;18.07;;;9.00;99.90;;;;;;5049171;28;20461;-69
2021/12/27 00:14:12;;;;;;;26.33;19.00;;;8.90;99.90;;;;;;5049010;28;20514;-69
2021/12/27 00:16:39;;;;;;;24.83;18.53;;;9.00;99.90;;;;;;5048751;28;20472;-69
2021/12/27 00:19:06;;;;;;;26.10;17.47;;;8.80;99.90;;;;;;5048512;28;20900;-69
2021/12/27 00:21:35;;;;;;;20.10;15.57;;;9.00;99.90;;;;;;5049181;28;20460;-69
2021/12/27 00:24:02;;;;;;;25.17;17.73;;;9.10;99.90;;;;;;5060013;28;21296;-69
2021/12/27 00:26:29;;;;;;;23.93;17.60;;;9.20;99.90;;;;;;5068998;28;20485;-69
2021/12/27 00:28:56;;;;;;;27.37;18.87;;;9.20;99.90;;;;;;5069053;28;20443;-68
2021/12/27 00:31:23;;;;;;;24.40;18.20;;;9.30;99.90;;;;;;5069003;28;20495;-70
2021/12/27 00:33:50;;;;;;;25.97;17.60;;;9.10;99.90;;;;;;5068653;28;20498;-69
2021/12/27 00:36:17;;;;;;;20.27;16.07;;;9.10;99.90;;;;;;5069567;28;20456;-69
2021/12/27 00:38:45;;;;;;;28.17;18.23;;;9.00;99.90;;;;;;5072786;28;20479;-68
2021/12/27 00:41:12;;;;;;;24.50;18.30;;;8.90;99.90;;;;;;5072447;28;21031;-70
2021/12/27 00:43:40;;;;;;;27.00;16.70;;;9.10;99.90;;;;;;5072682;28;20459;-71
2021/12/27 00:46:07;;;;;;;25.50;18.10;;;9.00;99.90;;;;;;5072423;28;20464;-69
2021/12/27 00:48:34;;;;;;;24.87;18.10;;;9.00;99.90;;;;;;5072561;28;20456;-69
2021/12/27 00:51:01;;;;;;;25.67;19.40;;;9.10;99.90;;;;;;5072454;28;20448;-69
2021/12/27 00:53:28;;;;;;;28.50;19.03;;;9.10;99.90;;;;;;5072328;28;20889;-69
2021/12/27 00:55:57;;;;;;;22.20;18.57;;;9.20;99.90;;;;;;5072248;28;20483;-69
2021/12/27 00:58:24;;;;;;;21.60;17.17;;;9.20;99.90;;;;;;5072319;28;20452;-69
2021/12/27 01:00:51;;;;;;;27.00;18.93;;;9.20;99.90;;;;;;5072181;28;20449;-69
2021/12/27 01:03:20;;;;;;;24.83;19.07;;;9.20;99.90;;;;;;5072007;28;20548;-70
2021/12/27 01:05:47;;;;;;;23.53;16.30;;;9.10;99.90;;;;;;5072335;28;20528;-69
2021/12/27 01:08:15;;;;;;;25.37;17.87;;;9.20;99.90;;;;;;5072254;28;20460;-69
2021/12/27 01:13:37;;;;;;;27.40;17.27;;;9.30;99.90;;;;;;5069185;28;20895;-69
2021/12/27 01:16:11;;;;;;;26.63;18.13;;;9.20;99.90;;;;;;5072146;28;20456;-70
2021/12/27 01:18:41;;;;;;;24.13;17.70;;;9.00;99.90;;;;;;5072036;28;20456;-68
2021/12/27 01:21:09;;;;;;;22.87;17.50;;;8.80;99.90;;;;;;5071713;28;20460;-68
2021/12/27 01:23:36;;;;;;;22.53;16.57;;;8.90;99.90;;;;;;5071891;28;20460;-69
2021/12/27 01:26:04;;;;;;;28.70;18.40;;;9.10;99.90;;;;;;5071809;28;20456;-68
2021/12/27 01:28:33;;;;;;;25.57;17.20;;;8.80;99.90;;;;;;5071893;28;20463;-69
2021/12/27 01:31:00;;;;;;;23.93;15.90;;;8.50;99.90;;;;;;5071930;28;20936;-70
2021/12/27 01:33:28;;;;;;;22.90;17.00;;;8.70;99.90;;;;;;5071281;28;20467;-69
2021/12/27 01:35:56;;;;;;;28.93;16.97;;;8.70;99.90;;;;;;5071719;28;20478;-69
2021/12/27 01:38:23;;;;;;;23.63;16.60;;;8.30;99.90;;;;;;5071599;28;20460;-68
2021/12/27 01:40:54;;;;;;;33.20;16.97;;;8.10;99.90;;;;;;5071461;28;20491;-69
2021/12/27 01:43:25;;;;;;;21.93;15.73;;;8.30;99.90;;;;;;5071307;28;20486;-68
2021/12/27 01:45:56;;;;;;;22.53;16.03;;;8.50;99.90;;;;;;5071360;28;21025;-69
2021/12/27 01:48:25;;;;;;;18.50;13.57;;;8.20;99.90;;;;;;5070986;28;20459;-69
2021/12/27 01:50:55;;;;;;;22.87;14.77;;;8.20;99.90;;;;;;5071220;28;20459;-67
2021/12/27 01:53:24;;;;;;;22.00;15.20;;;8.30;99.90;;;;;;5071142;28;20599;-69
2021/12/27 01:55:52;;;;;;;19.87;14.03;;;8.40;99.90;;;;;;5070925;28;20972;-69
2021/12/27 01:58:20;;;;;;;18.57;14.57;;;8.30;99.90;;;;;;5071147;28;20450;-68
2021/12/27 02:00:50;;;;;;;19.87;14.43;;;8.30;99.90;;;;;;5070797;28;21071;-68
2021/12/27 02:03:20;;;;;;;21.67;14.73;;;8.50;99.90;;;;;;5071132;28;20460;-69
2021/12/27 02:05:48;;;;;;;21.10;14.97;;;8.70;99.90;;;;;;5070984;28;20484;-70
2021/12/27 02:08:15;;;;;;;20.07;13.23;;;8.70;99.90;;;;;;5071377;28;20455;-68
2021/12/27 02:10:43;;;;;;;19.07;14.00;;;8.50;99.90;;;;;;5071031;28;20447;-68
2021/12/27 02:13:11;;;;;;;20.80;14.00;;;8.50;99.90;;;;;;5071091;28;20804;-69
2021/12/27 02:15:38;;;;;;;21.43;13.10;;;8.80;99.90;;;;;;5070597;28;20996;-68
2021/12/27 02:18:08;;;;;;;23.77;14.67;;;8.90;99.90;;;;;;5070697;28;20456;-70
2021/12/27 02:20:39;;;;;;;23.03;15.60;;;9.00;99.90;;;;;;5070330;28;20488;-69
2021/12/27 02:23:15;;;;;;;24.67;17.40;;;9.10;99.90;;;;;;5070936;28;20445;-70
2021/12/27 02:25:44;;;;;;;21.10;14.37;;;8.80;99.90;;;;;;5070636;28;20526;-69
2021/12/27 02:28:11;;;;;;;22.73;15.13;;;8.50;99.90;;;;;;5070545;28;20459;-69
2021/12/27 02:30:41;;;;;;;25.70;18.27;;;8.70;99.90;;;;;;5070499;28;20449;-69
2021/12/27 02:33:09;;;;;;;25.07;18.27;;;8.90;99.90;;;;;;5070542;28;20458;-69
2021/12/27 02:35:40;;;;;;;20.80;16.80;;;8.90;99.90;;;;;;5070629;28;20811;-69
2021/12/27 02:38:08;;;;;;;22.13;16.20;;;8.90;99.90;;;;;;5070726;28;20456;-70
2021/12/27 02:40:36;;;;;;;22.43;16.83;;;9.10;99.90;;;;;;5070187;28;20490;-68
2021/12/27 02:43:05;;;;;;;25.50;17.47;;;9.20;99.90;;;;;;5070406;28;20457;-69
2021/12/27 02:45:35;;;;;;;21.23;15.60;;;9.30;99.90;;;;;;5070252;28;20480;-69
2021/12/27 02:48:02;;;;;;;19.40;15.10;;;9.40;99.90;;;;;;5070081;28;20948;-69
2021/12/27 02:50:29;;;;;;;22.37;15.90;;;9.50;99.90;;;;;;5070257;28;20467;-67
2021/12/27 02:52:59;;;;;;;19.10;15.00;;;9.50;99.90;;;;;;5069934;28;20483;-69
2021/12/27 02:55:27;;;;;;;19.77;14.80;;;9.70;99.90;;;;;;5069753;28;20949;-70
2021/12/27 02:57:54;;;;;;;20.00;13.90;;;9.70;99.90;;;;;;5069935;28;20503;-69
2021/12/27 03:00:24;;;;;;;22.13;15.73;;;9.60;99.90;;;;;;5069351;28;20895;-69
2021/12/27 03:02:52;;;;;;;21.47;14.43;;;9.60;99.90;;;;;;5069867;28;20807;-69
2021/12/27 03:05:21;;;;;;;21.73;13.80;;;9.60;99.90;;;;;;5069793;28;20542;-68
2021/12/27 03:07:51;;;;;;;20.03;14.17;;;9.80;99.90;;;;;;5069913;28;20453;-68
2021/12/27 03:10:21;;;;;;;22.27;15.20;;;9.80;99.90;;;;;;5069796;28;20448;-69
2021/12/27 03:12:50;;;;;;;19.93;14.20;;;9.80;99.90;;;;;;5070541;28;20852;-72
2021/12/27 03:15:18;;;;;;;24.70;16.87;;;9.40;99.90;;;;;;5069843;28;20940;-68
2021/12/27 03:17:48;;;;;;;23.93;15.80;;;9.20;99.90;;;;;;5069831;28;21307;-68
2021/12/27 03:20:16;;;;;;;20.30;13.90;;;9.10;99.90;;;;;;5069713;28;20521;-68
2021/12/27 03:22:44;;;;;;;18.37;13.73;;;8.90;99.90;;;;;;5069537;28;20461;-68
2021/12/27 03:25:13;;;;;;;20.27;15.00;;;9.00;99.90;;;;;;5069598;28;20570;-69
2021/12/27 03:27:42;;;;;;;19.70;13.70;;;9.00;99.90;;;;;;5069668;28;20937;-69
2021/12/27 03:30:11;;;;;;;19.83;14.10;;;9.00;99.90;;;;;;5069630;28;20452;-68
2021/12/27 03:32:39;;;;;;;23.23;14.00;;;9.10;99.90;;;;;;5069566;28;20482;-69
2021/12/27 03:35:11;;;;;;;20.07;14.67;;;8.80;99.90;;;;;;5069484;28;20471;-68
2021/12/27 03:37:40;;;;;;;18.47;13.63;;;8.80;99.90;;;;;;5068176;28;20468;-68
2021/12/27 03:40:10;;;;;;;20.87;13.33;;;8.90;99.90;;;;;;5069414;28;21014;-68
2021/12/27 03:42:38;;;;;;;18.97;13.20;;;8.90;99.90;;;;;;5069294;28;20558;-70
2021/12/27 03:45:09;;;;;;;17.10;12.70;;;9.00;99.90;;;;;;5068822;28;20472;-68
2021/12/27 03:47:36;;;;;;;18.77;12.77;;;;;;;;;;5069171;28;20455;-68
2021/12/27 03:50:04;;;;;;;20.03;13.20;;;;;;;;;;5068917;28;20467;-70
2021/12/27 03:52:31;;;;;;;19.23;13.40;;;9.00;99.90;;;;;;5069171;28;20455;-68
2021/12/27 03:54:58;;;;;;;19.13;12.80;;;9.00;99.90;;;;;;5068413;28;20644;-69
2021/12/27 03:57:25;;;;;;;15.37;11.50;;;9.20;99.90;;;;;;5069408;28;20827;-70
2021/12/27 04:00:15;;;;;;;15.17;12.03;;;9.40;99.90;;;;;;5069079;28;20487;-69
2021/12/27 04:02:43;;;;;;;15.73;12.17;;;9.50;99.90;;;;;;5068843;28;20793;-68
2021/12/27 04:05:11;;;;;;;15.23;11.23;;;9.50;99.90;;;;;;5069244;28;20533;-70
2021/12/27 04:07:38;;;;;;;15.13;10.57;;;9.20;99.90;;;;;;5069236;28;20481;-69
2021/12/27 04:10:07;;;;;;;17.47;12.30;;;9.10;99.90;;;;;;5069546;28;20478;-69
2021/12/27 04:12:34;;;;;;;19.00;12.57;;;;;;;;;;5072875;28;20512;-69
2021/12/27 04:15:01;;;;;;;15.67;11.03;;;9.30;99.90;;;;;;5072960;28;20471;-70
2021/12/27 04:17:29;;;;;;;16.93;12.20;;;;;;;;;;5073227;28;20534;-69
2021/12/27 04:19:57;;;;;;;17.77;11.83;;;9.30;99.90;;;;;;5073080;28;20515;-71
2021/12/27 04:22:25;;;;;;;14.83;10.90;;;;;;;;;;5073054;28;20452;-71
2021/12/27 04:24:52;;;;;;;16.40;11.37;;;;;;;;;;5072748;28;20476;-70
2021/12/27 04:27:20;;;;;;;18.33;12.63;;;;;;;;;;5072979;28;20456;-70
2021/12/27 04:29:47;;;;;;;22.40;12.83;;;;;;;;;;5072926;28;20459;-71
2021/12/27 04:32:15;;;;;;;17.70;12.63;;;;;;;;;;5073206;28;20475;-69
2021/12/27 04:34:42;;;;;;;22.13;13.67;;;;;;;;;;5072670;28;20533;-70
2021/12/27 04:37:11;;;;;;;19.43;12.00;;;9.00;99.90;;;;;;5072583;28;20459;-69
2021/12/27 04:39:39;;;;;;;16.87;12.00;;;;;;;;;;5072617;28;20456;-67
2021/12/27 04:42:08;;;;;;;18.33;13.23;;;;;;;;;;5072815;28;20443;-68
2021/12/27 04:44:35;;;;;;;18.43;11.90;;;;;;;;;;5072353;28;20460;-68
2021/12/27 04:47:03;;;;;;;18.20;13.60;;;8.80;99.90;;;;;;5072373;28;20926;-68
2021/12/27 04:49:31;;;;;;;26.60;18.37;;;;;;;;;;5072255;28;20513;-68
2021/12/27 04:51:58;;;;;;;26.47;15.73;;;8.60;99.90;;;;;;5071949;28;20442;-68
2021/12/27 04:54:26;;;;;;;20.50;14.27;;;8.60;99.90;;;;;;5071753;28;20908;-69
2021/12/27 04:56:54;;;;;;;22.73;16.90;;;;;;;;;;5072252;28;20492;-68
2021/12/27 04:59:21;;;;;;;23.63;13.57;;;8.60;99.90;;;;;;5072396;28;20443;-68
2021/12/27 05:01:48;;;;;;;19.23;12.67;;;8.70;99.90;;;;;;5072155;28;20488;-68
2021/12/27 05:04:15;;;;;;;19.30;13.47;;;8.80;99.90;;;;;;5071901;28;21127;-68
2021/12/27 05:06:42;;;;;;;18.73;14.73;;;8.80;99.90;;;;;;5072105;28;20643;-68
2021/12/27 05:09:09;;;;;;;18.47;12.43;;;8.70;99.90;;;;;;5072188;28;20459;-68
2021/12/27 05:11:37;;;;;;;16.50;12.07;;;8.80;99.90;;;;;;5072243;28;20501;-69
2021/12/27 05:14:04;;;;;;;17.10;12.60;;;12.20;99.90;;;;;;5071958;28;20505;-69
2021/12/27 05:16:32;;;;;;;35.37;24.43;;;8.80;99.90;;;;;;5072129;28;20532;-69
2021/12/27 05:18:59;;;;;;;24.53;17.07;;;8.70;99.90;;;;;;5071920;28;20512;-70
2021/12/27 05:21:26;;;;;;;26.47;17.90;;;8.70;99.90;;;;;;5071720;28;20488;-68
2021/12/27 05:23:53;;;;;;;29.17;20.43;;;8.80;99.90;;;;;;5071366;28;20516;-69
2021/12/27 05:26:20;;;;;;;22.80;15.80;;;8.60;99.90;;;;;;5071677;28;20452;-70
2021/12/27 05:28:50;;;;;;;23.27;17.00;;;8.40;99.90;;;;;;5071366;28;20943;-69
2021/12/27 05:31:17;;;;;;;24.60;16.63;;;8.50;99.90;;;;;;5071947;28;20452;-70
2021/12/27 05:33:45;;;;;;;20.27;15.07;;;8.60;99.90;;;;;;5071467;28;20509;-69
2021/12/27 05:36:12;;;;;;;19.40;15.70;;;8.60;99.90;;;;;;5071611;28;20516;-70
2021/12/27 05:38:40;;;;;;;16.63;12.63;;;8.70;99.90;;;;;;5071844;28;20467;-69
2021/12/27 05:41:07;;;;;;;20.53;14.33;;;8.60;99.90;;;;;;5071617;28;20495;-71
2021/12/27 05:43:35;;;;;;;18.77;13.07;;;8.60;99.90;;;;;;5071314;28;20512;-70
2021/12/27 05:46:04;;;;;;;16.83;13.70;;;8.90;99.90;;;;;;5071320;28;20486;-70
2021/12/27 05:48:31;;;;;;;30.60;21.83;;;;;;;;;;5071383;28;20452;-70
2021/12/27 05:50:58;;;;;;;23.80;16.60;;;8.90;99.90;;;;;;5071236;28;20998;-69
2021/12/27 05:53:26;;;;;;;22.47;16.30;;;;;;;;;;5070971;28;21081;-69
2021/12/27 05:55:53;;;;;;;20.97;15.43;;;;;;;;;;5070985;28;20483;-69
2021/12/27 05:58:20;;;;;;;26.63;16.60;;;9.00;99.90;;;;;;5071033;28;20521;-69
2021/12/27 06:00:47;;;;;;;26.23;18.13;;;8.70;99.90;;;;;;5070768;28;20495;-70
2021/12/27 06:03:15;;;;;;;23.53;17.03;;;8.80;99.90;;;;;;5071040;28;20459;-69
2021/12/27 06:05:43;;;;;;;20.67;16.43;;;8.80;99.90;;;;;;5070659;28;20463;-69
2021/12/27 06:08:10;;;;;;;22.10;16.80;;;8.80;99.90;;;;;;5071208;28;20865;-71
2021/12/27 06:10:37;;;;;;;21.70;16.07;;;8.90;99.90;;;;;;5071177;28;20444;-69
2021/12/27 06:13:05;;;;;;;21.07;16.50;;;8.90;99.90;;;;;;5070925;28;20463;-69
2021/12/27 06:15:32;;;;;;;23.00;17.17;;;8.90;99.90;;;;;;5070951;28;20600;-69
2021/12/27 06:17:59;;;;;;;16.30;11.70;;;9.00;99.90;;;;;;5070516;28;20825;-69
2021/12/27 06:20:27;;;;;;;17.97;13.33;;;9.10;99.90;;;;;;5070819;28;20557;-70
2021/12/27 06:22:58;;;;;;;28.63;19.77;;;9.30;99.90;;;;;;5070774;28;20870;-71
2021/12/27 06:25:26;;;;;;;22.50;17.33;;;9.30;99.90;;;;;;5070352;28;20479;-70
2021/12/27 06:27:53;;;;;;;21.23;15.40;;;9.30;99.90;;;;;;5070673;28;20461;-69
2021/12/27 06:30:21;;;;;;;17.77;14.10;;;9.40;99.90;;;;;;5070645;28;20457;-69
2021/12/27 06:32:49;;;;;;;17.27;11.77;;;9.60;99.90;;;;;;5070756;28;20546;-71
2021/12/27 06:35:17;;;;;;;17.93;12.37;;;9.80;99.90;;;;;;5069350;28;20533;-69
2021/12/27 06:37:47;;;;;;;15.57;11.17;;;9.60;99.90;;;;;;5070480;28;20514;-69
2021/12/27 06:40:16;;;;;;;16.63;12.97;;;9.70;99.90;;;;;;5070118;28;20465;-70
2021/12/27 06:42:43;;;;;;;22.77;17.80;;;;;;;;;;5069985;28;20534;-69
2021/12/27 06:45:11;;;;;;;28.03;19.67;;;9.80;99.90;;;;;;5070230;28;20971;-69
2021/12/27 06:47:38;;;;;;;30.93;21.60;;;9.90;99.90;;;;;;5068817;28;20456;-70
2021/12/27 06:50:07;;;;;;;27.40;21.60;;;9.90;99.90;;;;;;5070106;28;20460;-69
2021/12/27 06:52:35;;;;;;;28.23;19.30;;;;;;;;;;5070276;28;20453;-71
2021/12/27 06:55:04;;;;;;;24.40;18.60;;;;;;;;;;5069594;28;20491;-71
2021/12/27 06:57:31;;;;;;;23.73;18.40;;;;;;;;;;5070019;28;20456;-69
2021/12/27 06:59:59;;;;;;;25.63;16.60;;;10.20;99.90;;;;;;5070195;28;20914;-69
2021/12/27 07:02:26;;;;;;;17.83;12.10;;;;;;;;;;5070151;28;20576;-70
2021/12/27 07:04:53;;;;;;;18.80;14.30;;;10.40;99.90;;;;;;5069654;28;20879;-69
2021/12/27 07:07:20;;;;;;;14.53;9.30;;;;;;;;;;5069694;28;20518;-70
2021/12/27 07:09:48;;;;;;;15.80;9.17;;;;;;;;;;5069990;28;20497;-70
2021/12/27 07:12:17;;;;;;;13.83;7.90;;;;;;;;;;5069698;28;20463;-69
2021/12/27 07:14:47;;;;;;;12.93;7.83;;;;;;;;;;5069372;28;20867;-70
2021/12/27 07:17:14;;;;;;;11.20;6.23;;;;;;;;;;5069590;28;21003;-70
2021/12/27 07:19:41;;;;;;;8.47;6.60;;;;;;;;;;5069430;28;20448;-72
2021/12/27 07:22:09;;;;;;;15.23;7.00;;;10.50;99.90;;;;;;5069603;28;20891;-69
2021/12/27 07:24:36;;;;;;;10.10;7.33;;;;;;;;;;5069767;28;20481;-68
2021/12/27 07:27:03;;;;;;;9.57;6.67;;;10.70;99.90;;;;;;5069173;28;20820;-69
2021/12/27 07:29:32;;;;;;;11.17;6.77;;;;;;;;;;5069321;28;20446;-69
2021/12/27 07:31:59;;;;;;;11.33;5.70;;;;;;;;;;5069435;28;20456;-70
2021/12/27 07:34:27;;;;;;;11.13;6.30;;;;;;;;;;5069426;28;20477;-70
2021/12/27 07:36:56;;;;;;;9.23;6.33;;;10.90;99.90;;;;;;5069367;28;20453;-69
2021/12/27 07:39:24;;;;;;;11.77;6.97;;;;;;;;;;5069276;28;20518;-69
2021/12/27 07:41:51;;;;;;;8.33;5.77;;;11.00;99.90;;;;;;5069324;28;20550;-69
2021/12/27 07:44:19;;;;;;;9.83;6.30;;;;;;;;;;5069543;28;20460;-69
2021/12/27 07:46:48;;;;;;;11.70;7.30;;;;;;;;;;5068488;28;20441;-68
2021/12/27 07:49:15;;;;;;;11.40;6.43;;;;;;;;;;5069136;28;20981;-68
2021/12/27 07:51:43;;;;;;;9.53;6.27;;;11.10;99.90;;;;;;5068814;28;20486;-68
2021/12/27 07:54:10;;;;;;;8.50;5.47;;;;;;;;;;5068695;28;20928;-69
2021/12/27 07:56:39;;;;;;;10.07;6.30;;;11.20;99.90;;;;;;5069096;28;20449;-67
2021/12/27 07:59:06;;;;;;;9.40;5.50;;;11.20;99.90;;;;;;5069317;28;20460;-70
2021/12/27 08:01:34;;;;;;;11.10;6.90;;;11.00;99.90;;;;;;5068741;28;20523;-69
2021/12/27 08:04:03;;;;;;;10.73;6.10;;;11.00;99.90;;;;;;5069199;28;20515;-70
2021/12/27 08:06:31;;;;;;;10.60;6.67;;;11.10;99.90;;;;;;5069358;28;20536;-69
2021/12/27 08:08:58;;;;;;;8.23;5.57;;;;;;;;;;5069230;28;20506;-75
2021/12/27 08:11:26;;;;;;;10.07;6.23;;;;;;;;;;5069073;28;20826;-69
2021/12/27 08:13:54;;;;;;;9.30;6.07;;;11.10;99.90;;;;;;5068723;28;20949;-70
2021/12/27 08:16:24;;;;;;;10.20;6.43;;;11.20;99.90;;;;;;5069054;28;20530;-70
2021/12/27 08:18:51;;;;;;;11.17;6.80;;;11.20;99.90;;;;;;5068481;28;20508;-68
2021/12/27 08:21:22;;;;;;;9.10;6.93;;;11.10;99.90;;;;;;5069014;28;20485;-72
2021/12/27 08:23:49;;;;;;;11.40;7.00;;;;;;;;;;5068823;28;20564;-75
2021/12/27 08:26:18;;;;;;;10.07;6.20;;;11.10;99.90;;;;;;5068806;28;20962;-71
2021/12/27 08:28:46;;;;;;;9.60;6.63;;;;;;;;;;5069111;28;20736;-72
2021/12/27 08:31:13;;;;;;;10.70;6.90;;;12.10;99.90;;;;;;5068916;28;20800;-72
2021/12/27 08:33:40;;;;;;;10.33;7.27;;;11.60;99.90;;;;;;5068780;28;20453;-70
2021/12/27 08:36:07;;;;;;;12.90;7.07;;;11.50;99.90;;;;;;5069178;28;20928;-71
2021/12/27 08:38:36;;;;;;;10.27;7.27;;;11.50;99.90;;;;;;5069089;28;20460;-72
2021/12/27 08:41:03;;;;;;;11.80;7.23;;;11.40;99.90;;;;;;5069219;28;20980;-73
2021/12/27 08:43:30;;;;;;;10.70;6.73;;;11.60;99.90;;;;;;5070301;28;20510;-70
2021/12/27 08:45:59;;;;;;;10.67;7.33;;;11.70;99.90;;;;;;5069502;28;20461;-72
2021/12/27 08:48:26;;;;;;;12.37;7.20;;;;;;;;;;5069069;28;20454;-70
2021/12/27 08:50:53;;;;;;;11.00;7.90;;;11.60;99.90;;;;;;5069045;28;20464;-73
2021/12/27 08:53:21;;;;;;;12.77;7.97;;;11.50;99.90;;;;;;5068553;28;20970;-68
2021/12/27 08:55:50;;;;;;;13.10;8.90;;;11.50;99.90;;;;;;5058054;28;20470;-68
2021/12/27 08:58:18;;;;;;;11.17;6.80;;;11.60;99.90;;;;;;5050848;28;20496;-68
2021/12/27 09:00:46;;;;;;;9.70;7.30;;;11.80;99.90;;;;;;5051166;28;20457;-70
2021/12/27 09:03:13;;;;;;;10.80;7.70;;;11.80;99.90;;;;;;5052320;28;20551;-72
2021/12/27 09:05:42;;;;;;;9.33;7.47;;;11.80;99.90;;;;;;5052490;28;20474;-69
2021/12/27 09:08:11;;;;;;;11.20;7.90;;;11.90;99.90;;;;;;5051976;28;20450;-74
2021/12/27 09:10:39;;;;;;;12.33;8.80;;;;;;;;;;5051722;28;20456;-72
2021/12/27 09:13:08;;;;;;;12.47;8.13;;;12.00;99.90;;;;;;5052250;28;20454;-70
2021/12/27 09:15:35;;;;;;;9.97;7.97;;;12.10;99.90;;;;;;5050803;28;20469;-71
2021/12/27 09:18:02;;;;;;;13.13;8.60;;;;;;;;;;5052086;28;20957;-69
2021/12/27 09:20:29;;;;;;;11.10;8.27;;;12.10;99.90;;;;;;5051797;28;20450;-69
2021/12/27 09:22:57;;;;;;;11.73;8.23;;;12.10;99.90;;;;;;5050584;28;20496;-71
2021/12/27 09:25:24;;;;;;;13.43;7.97;;;12.10;99.90;;;;;;5071476;28;20479;-72
2021/12/27 09:27:51;;;;;;;12.00;8.80;;;;;;;;;;5071814;28;20453;-71
2021/12/27 09:30:20;;;;;;;14.03;8.33;;;12.00;99.90;;;;;;5071595;28;20460;-70
2021/12/27 09:32:48;;;;;;;8.50;5.20;;;;;;;;;;5071918;28;20904;-69
2021/12/27 09:35:18;;;;;;;7.90;4.50;;;;;;;;;;5071214;28;20998;-70
2021/12/27 09:37:46;;;;;;;10.90;7.90;;;;;;;;;;5071748;28;20544;-70
2021/12/27 09:40:13;;;;;;;13.13;8.63;;;12.60;99.90;;;;;;5071652;28;20920;-70
2021/12/27 09:42:41;;;;;;;10.40;8.27;;;;;;;;;;5071390;28;20489;-71
2021/12/27 09:45:09;;;;;;;13.67;9.87;;;;;;;;;;5071602;28;20538;-70
2021/12/27 09:47:38;;;;;;;15.63;9.70;;;;;;;;;;5071749;28;20920;-68
2021/12/27 09:50:07;;;;;;;18.50;11.10;;;13.00;99.90;;;;;;5071411;28;20456;-70
2021/12/27 09:52:34;;;;;;;14.10;9.63;;;;;;;;;;5071645;28;20842;-68
2021/12/27 09:55:04;;;;;;;14.73;9.33;;;13.00;99.90;;;;;;5070877;28;20497;-69
2021/12/27 09:57:31;;;;;;;15.97;10.47;;;13.30;99.90;;;;;;5071236;28;20971;-69
2021/12/27 09:59:59;;;;;;;14.50;9.97;;;;;;;;;;5071343;28;20457;-70
2021/12/27 10:02:26;;;;;;;11.93;9.83;;;;;;;;;;5070996;28;20489;-70
2021/12/27 10:04:55;;;;;;;15.57;10.10;;;12.80;99.90;;;;;;5070753;28;20476;-70
2021/12/27 10:07:22;;;;;;;15.53;9.53;;;;;;;;;;5070985;28;20464;-70
2021/12/27 10:09:54;;;;;;;12.53;9.50;;;;;;;;;;5070479;28;20461;-70
2021/12/27 10:12:23;;;;;;;13.10;8.73;;;;;;;;;;5070983;28;20520;-69
2021/12/27 10:14:56;;;;;;;13.43;10.40;;;13.00;99.90;;;;;;5070555;28;20909;-69
2021/12/27 10:17:23;;;;;;;16.10;10.60;;;;;;;;;;5070824;28;20548;-70
2021/12/27 10:19:51;;;;;;;15.33;10.93;;;;;;;;;;5070672;28;20464;-69
2021/12/27 10:22:21;;;;;;;14.30;9.57;;;12.90;99.90;;;;;;5070710;28;20528;-69
2021/12/27 10:24:50;;;;;;;14.60;10.83;;;;;;;;;;5070461;28;20501;-70
2021/12/27 10:27:19;;;;;;;16.83;11.20;;;;;;;;;;5070661;28;20540;-69
2021/12/27 10:29:47;;;;;;;14.43;10.07;;;12.60;99.90;;;;;;5070801;28;20461;-69
2021/12/27 10:32:16;;;;;;;17.20;11.53;;;;;;;;;;5070818;28;20541;-69
2021/12/27 10:34:46;;;;;;;14.20;10.80;;;12.60;99.90;;;;;;5070492;28;20485;-69
2021/12/27 10:37:18;;;;;;;16.80;12.10;;;;;;;;;;5070547;28;20819;-70
2021/12/27 10:39:50;;;;;;;24.40;13.13;;;12.80;99.90;;;;;;5070133;28;20480;-69
2021/12/27 10:42:19;;;;;;;20.07;10.60;;;12.60;99.90;;;;;;5070148;28;20481;-69
2021/12/27 10:44:48;;;;;;;14.40;10.00;;;12.60;99.90;;;;;;5069902;28;20476;-70
2021/12/27 10:47:26;;;;;;;31.13;11.30;;;;;;;;;;5070141;28;20452;-69
2021/12/27 10:49:55;;;;;;;8.50;4.47;;;12.90;99.90;;;;;;5068611;28;20502;-72
2021/12/27 10:52:22;;;;;;;11.53;7.37;;;;;;;;;;5070468;28;20444;-69
2021/12/27 10:55:01;;;;;;;11.13;5.90;;;13.20;99.90;;;;;;5069580;28;20548;-67
2021/12/27 10:57:28;;;;;;;4.77;2.17;;;;;;;;;;5069989;28;20904;-69
2021/12/27 11:00:15;;;;;;;5.03;1.53;;;;;;;;;;5070376;28;20536;-67
2021/12/27 11:02:42;;;;;;;6.63;1.70;;;14.00;99.90;;;;;;5070172;28;20503;-68
2021/12/27 11:05:13;;;;;;;3.70;1.30;;;14.20;99.90;;;;;;5069746;28;20903;-68
2021/12/27 11:07:41;;;;;;;4.47;1.33;;;;;;;;;;5069780;28;20558;-68
2021/12/27 11:10:10;;;;;;;6.43;1.77;;;14.50;99.90;;;;;;5069892;28;20513;-67
2021/12/27 11:12:37;;;;;;;5.00;1.33;;;14.50;99.90;;;;;;5069886;28;20502;-68
2021/12/27 11:15:09;;;;;;;5.80;1.90;;;14.70;99.90;;;;;;5069547;28;20973;-68
2021/12/27 11:17:37;;;;;;;4.20;1.60;;;14.80;99.90;;;;;;5069730;28;20449;-68
2021/12/27 11:20:07;;;;;;;7.80;1.60;;;;;;;;;;5068955;28;20510;-68
2021/12/27 11:22:36;;;;;;;4.73;1.50;;;14.80;99.90;;;;;;5069640;28;20507;-68
2021/12/27 11:25:06;;;;;;;4.10;1.10;;;14.80;99.90;;;;;;5069527;28;20477;-68
2021/12/27 11:27:36;;;;;;;3.60;1.30;;;14.70;99.90;;;;;;5069716;28;20543;-68
2021/12/27 11:30:10;;;;;;;5.40;0.90;;;14.80;99.90;;;;;;5069464;28;21025;-67
2021/12/27 11:32:37;;;;;;;5.10;1.53;;;;;;;;;;5069340;28;20563;-68
2021/12/27 11:35:09;;;;;;;7.57;1.80;;;14.70;99.90;;;;;;5069280;28;20993;-68
2021/12/27 11:37:38;;;;;;;3.77;1.30;;;14.80;99.90;;;;;;5069665;28;20457;-68
2021/12/27 11:40:07;;;;;;;4.10;1.33;;;;;;;;;;5069368;28;20498;-69
2021/12/27 11:42:54;;;;;;;5.90;1.30;;;14.80;99.90;;;;;;5069583;28;20487;-68
2021/12/27 11:45:41;;;;;;;4.10;1.17;;;;;;;;;;5069617;28;20504;-68
2021/12/27 11:48:10;;;;;;;9.37;2.23;;;14.90;99.90;;;;;;5069491;28;20448;-68
2021/12/27 11:51:05;;;;;;;4.37;1.37;;;14.60;99.90;;;;;;5069558;28;20452;-67
2021/12/27 11:53:35;;;;;;;4.67;1.20;;;14.50;99.90;;;;;;5063905;28;20988;-68
2021/12/27 11:56:08;;;;;;;4.27;1.50;;;14.50;99.90;;;;;;5069121;28;20950;-68
2021/12/27 11:58:38;;;;;;;4.63;1.57;;;14.40;99.90;;;;;;5069269;28;20459;-68
2021/12/27 12:01:08;;;;;;;4.10;1.60;;;;;;;;;;5069358;28;20552;-68
2021/12/27 12:03:39;;;;;;;7.00;3.60;;;;;;;;;;5069107;28;20957;-68
2021/12/27 12:06:29;;;;;;;10.17;4.97;;;14.70;99.90;;;;;;5067867;28;20463;-68
2021/12/27 12:08:57;;;;;;;8.93;5.57;;;;;;;;;;5069132;28;20535;-68
2021/12/27 12:11:34;;;;;;;7.10;2.47;;;;;;;;;;5069250;28;20525;-68
2021/12/27 12:14:16;;;;;;;11.70;6.20;;;;;;;;;;5069208;28;20475;-68
2021/12/27 12:16:49;;;;;;;7.40;4.67;;;;;;;;;;5068907;28;20449;-68
2021/12/27 12:19:16;;;;;;;7.10;3.87;;;14.30;99.90;;;;;;5068984;28;20483;-69
2021/12/27 12:21:47;;;;;;;9.57;4.30;;;14.40;99.90;;;;;;5068535;28;20449;-69
2021/12/27 12:24:20;;;;;;;10.60;4.50;;;14.50;99.90;;;;;;5068647;28;20492;-68
2021/12/27 12:26:49;;;;;;;9.50;4.27;;;;;;;;;;5068599;28;20449;-68
2021/12/27 12:29:16;;;;;;;8.23;4.70;;;;;;;;;;5068882;28;21198;-68
2021/12/27 12:31:43;;;;;;;9.47;5.37;;;;;;;;;;5070329;28;21015;-68
2021/12/27 12:34:13;;;;;;;12.10;5.70;;;;;;;;;;5072753;28;20468;-68
2021/12/27 12:36:47;;;;;;;11.37;6.33;;;;;;;;;;5072781;28;20453;-67
2021/12/27 12:39:15;;;;;;;11.27;6.47;;;;;;;;;;5072546;28;20464;-69
2021/12/27 12:41:42;;;;;;;9.63;4.60;;;;;;;;;;5071603;28;20449;-68
2021/12/27 12:44:09;;;;;;;9.67;5.20;;;14.50;99.90;;;;;;5072773;28;20496;-68
2021/12/27 12:46:40;;;;;;;9.67;5.67;;;;;;;;;;5072712;28;20460;-69
2021/12/27 12:49:09;;;;;;;9.50;5.60;;;;;;;;;;5072717;28;20902;-68
2021/12/27 12:51:40;;;;;;;11.30;6.73;;;;;;;;;;5072239;28;20828;-68
2021/12/27 12:54:09;;;;;;;10.60;7.50;;;;;;;;;;5071910;28;20595;-69
2021/12/27 12:56:38;;;;;;;9.27;6.77;;;;;;;;;;5072672;28;20824;-67
2021/12/27 12:59:06;;;;;;;11.43;6.47;;;;;;;;;;5072697;28;20913;-68
2021/12/27 13:01:33;;;;;;;15.00;6.63;;;;;;;;;;5072116;28;20461;-67
2021/12/27 13:04:01;;;;;;;11.03;6.70;;;14.40;99.90;;;;;;5072106;28;20511;-68
2021/12/27 13:06:29;;;;;;;14.60;7.37;;;;;;;;;;5072203;28;20517;-68
2021/12/27 13:09:02;;;;;;;14.73;7.00;;;;;;;;;;5072166;28;20547;-68
2021/12/27 13:11:29;;;;;;;17.53;6.40;;;;;;;;;;5072266;28;20463;-68
2021/12/27 13:14:00;;;;;;;14.67;6.83;;;;;;;;;;5071346;28;20455;-68
2021/12/27 13:16:29;;;;;;;10.90;5.63;;;14.40;99.90;;;;;;5071461;28;20456;-68
2021/12/27 13:18:56;;;;;;;11.80;5.70;;;14.40;99.90;;;;;;5071944;28;20535;-68